Time;durP1;ratioP1;P1;durP2;ratioP2;P2;SDS_P1;SDS_P2;PMS_P1;PMS_P2;Temp;Humidity;BMP_temperature;BMP_pressure;BME280_temperature;BME280_humidity;BME280_pressure;Samples;Min_cycle;Max_cycle;Signal;HPM_P1;HPM_P2
2022/04/08 00:01:45;;;;;;;6.80;1.00;;;;;;;5.47;82.13;98188.56;5095768;28;20273;-82
2022/04/08 00:04:10;;;;;;;7.53;1.50;;;;;;;5.39;83.00;98188.06;5095888;28;20023;-82
2022/04/08 00:06:38;;;;;;;2.73;0.93;;;;;;;5.34;83.96;98207.44;5095760;28;20028;-79
2022/04/08 00:09:04;;;;;;;5.63;1.13;;;;;;;5.35;83.81;98200.25;5095753;28;20134;-82
2022/04/08 00:11:29;;;;;;;3.00;0.90;;;;;;;5.32;83.58;98206.03;5094259;28;20036;-82
2022/04/08 00:13:57;;;;;;;4.43;0.80;;;;;;;5.38;84.12;98221.13;5095195;28;20060;-82
2022/04/08 00:16:23;;;;;;;3.30;0.90;;;;;;;5.43;83.59;98208.75;5096515;28;20031;-82
2022/04/08 00:18:48;;;;;;;2.07;0.87;;;;;;;5.36;83.77;98209.91;5096538;28;20044;-82
2022/04/08 00:21:14;;;;;;;8.32;0.73;;;;;;;5.38;84.08;98215.81;5098186;28;20031;-82
2022/04/08 00:23:40;;;;;;;4.28;1.25;;;;;;;5.31;84.39;98212.41;5100264;28;20111;-80
2022/04/08 00:26:05;;;;;;;2.33;0.77;;;;;;;5.26;84.57;98230.97;5098458;28;20032;-79
2022/04/08 00:28:31;;;;;;;2.20;0.90;;;;;;;5.19;85.92;98233.72;5100367;28;20292;-78
2022/04/08 00:30:57;;;;;;;3.85;1.10;;;;;;;5.17;86.65;98241.13;5097281;28;20056;-78
2022/04/08 00:33:22;;;;;;;8.25;1.10;;;;;;;5.03;88.19;98240.44;5095480;28;20378;-82
2022/04/08 00:35:48;;;;;;;2.60;1.10;;;;;;;5.01;89.08;98255.09;5094678;28;20093;-79
2022/04/08 00:38:13;;;;;;;4.22;1.25;;;;;;;4.88;89.57;98261.34;5096361;28;20258;-81
2022/04/08 00:40:38;;;;;;;4.30;1.67;;;;;;;4.80;91.17;98256.31;5103585;28;20036;-80
2022/04/08 00:43:14;;;;;;;1.95;0.73;;;;;;;4.85;91.62;98269.78;5097667;28;20058;-81
2022/04/08 00:45:40;;;;;;;3.33;1.23;;;;;;;4.81;91.46;98265.97;5096223;28;20028;-78
2022/04/08 00:48:09;;;;;;;8.07;1.80;;;;;;;4.73;90.95;98267.03;5094024;28;20415;-78
2022/04/08 00:50:38;;;;;;;9.00;1.85;;;;;;;4.73;90.78;98288.38;5097890;28;20032;-79
2022/04/08 00:53:07;;;;;;;9.50;1.45;;;;;;;4.73;91.82;98287.56;5097537;28;20024;-78
2022/04/08 00:55:38;;;;;;;3.22;0.95;;;;;;;4.62;91.72;98291.78;5097993;28;20377;-79
2022/04/08 00:58:04;;;;;;;3.72;1.10;;;;;;;4.57;90.92;98288.13;5098147;28;20085;-79
2022/04/08 01:00:35;;;;;;;2.90;0.98;;;;;;;4.52;91.70;98292.25;5098311;28;20035;-78
2022/04/08 01:03:01;;;;;;;3.03;1.33;;;;;;;4.52;92.60;98294.13;5099978;28;20040;-79
2022/04/08 01:05:26;;;;;;;2.58;1.40;;;;;;;4.50;92.88;98304.19;5100760;28;20432;-79
2022/04/08 01:07:53;;;;;;;3.53;1.10;;;;;;;4.58;93.48;98311.91;5101988;28;20105;-79
2022/04/08 01:10:18;;;;;;;3.80;1.55;;;;;;;4.52;92.97;98313.59;5103998;28;20032;-79
2022/04/08 01:12:44;;;;;;;5.35;1.20;;;;;;;4.50;92.85;98315.66;5106374;28;20032;-78
2022/04/08 01:15:09;;;;;;;3.60;1.00;;;;;;;4.48;93.23;98320.38;5102785;28;20046;-79
2022/04/08 01:17:35;;;;;;;4.40;1.02;;;;;;;4.49;93.03;98314.03;5102664;28;20031;-77
2022/04/08 01:20:00;;;;;;;4.18;1.88;;;;;;;4.51;92.23;98317.28;5100852;28;20093;-81
2022/04/08 01:22:26;;;;;;;7.05;1.33;;;;;;;4.56;91.74;98326.50;5102028;28;20032;-80
2022/04/08 01:25:01;;;;;;;4.93;1.00;;;;;;;4.56;92.57;98329.16;5099786;28;20467;-81
2022/04/08 01:27:28;;;;;;;4.55;1.15;;;;;;;4.61;92.00;98324.81;5103092;28;20273;-79
2022/04/08 01:29:54;;;;;;;2.97;1.00;;;;;;;4.57;91.46;98342.28;5104929;28;20083;-79
2022/04/08 01:32:19;;;;;;;4.80;1.05;;;;;;;4.63;91.13;98337.94;5109220;28;20043;-81
2022/04/08 01:34:45;;;;;;;2.77;1.23;;;;;;;4.63;91.15;98349.44;5112641;28;20032;-81
2022/04/08 01:37:10;;;;;;;;;;;;;;;4.53;90.83;98354.41;5108097;28;20078;-82
2022/04/08 01:39:37;;;;;;;4.65;1.25;;;;;;;4.57;90.66;98360.97;5101470;28;19908;-82
2022/04/08 01:42:03;;;;;;;5.50;1.00;;;;;;;4.66;89.61;98366.84;5100914;28;20036;-79
2022/04/08 01:44:29;;;;;;;7.25;1.45;;;;;;;4.59;89.38;98374.09;5098289;28;20136;-80
2022/04/08 01:46:54;;;;;;;6.63;1.33;;;;;;;4.58;88.69;98359.09;5096996;28;20035;-78
2022/04/08 01:49:19;;;;;;;6.40;1.90;;;;;;;4.58;87.98;98364.44;5097289;28;20289;-78
2022/04/08 01:51:44;;;;;;;5.87;1.00;;;;;;;4.60;87.42;98373.06;5097128;28;20035;-81
2022/04/08 01:54:10;;;;;;;6.17;1.00;;;;;;;4.53;87.69;98363.25;5097262;28;20284;-81
2022/04/08 01:56:35;;;;;;;3.83;1.20;;;;;;;4.58;87.37;98367.94;5097052;28;20478;-81
2022/04/08 01:59:00;;;;;;;9.80;1.40;;;;;;;4.50;88.00;98374.34;5097393;28;20039;-82
2022/04/08 02:01:25;;;;;;;5.53;1.33;;;;;;;4.48;87.12;98375.56;5096236;28;20281;-82
2022/04/08 02:03:51;;;;;;;1.40;0.50;;;;;;;4.47;87.56;98376.63;5097361;28;20156;-81
2022/04/08 02:06:16;;;;;;;5.37;2.07;;;;;;;4.47;87.89;98374.78;5097479;28;20035;-81
2022/04/08 02:08:41;;;;;;;4.03;0.87;;;;;;;4.46;86.84;98391.00;5097326;28;20046;-81
2022/04/08 02:11:07;;;;;;;4.43;0.63;;;;;;;4.42;87.13;98389.78;5097194;28;20028;-83
2022/04/08 02:13:33;;;;;;;6.65;1.33;;;;;;;4.41;86.91;98399.63;5096886;28;20492;-80
2022/04/08 02:15:58;;;;;;;3.17;0.85;;;;;;;4.41;86.32;98404.97;5098132;28;20510;-80
2022/04/08 02:18:23;;;;;;;6.17;1.17;;;;;;;4.38;87.76;98407.25;5099893;28;20059;-81
2022/04/08 02:20:50;;;;;;;4.07;1.03;;;;;;;4.42;87.40;98409.28;5097113;28;20717;-81
2022/04/08 02:23:15;;;;;;;12.35;1.35;;;;;;;4.43;88.03;98420.75;5095990;28;20432;-82
2022/04/08 02:25:41;;;;;;;8.82;1.63;;;;;;;4.51;87.97;98428.50;5097001;28;20036;-81
2022/04/08 02:28:06;;;;;;;5.88;1.35;;;;;;;4.47;88.69;98421.97;5096948;28;20036;-79
2022/04/08 02:30:32;;;;;;;4.53;1.02;;;;;;;4.47;88.75;98422.78;5096359;28;20040;-80
2022/04/08 02:32:57;;;;;;;6.73;1.40;;;;;;;4.56;89.22;98436.66;5096452;28;20463;-82
2022/04/08 02:35:22;;;;;;;5.25;1.33;;;;;;;4.53;89.76;98432.56;5096698;28;20154;-80
2022/04/08 02:37:48;;;;;;;3.40;1.10;;;;;;;4.53;89.91;98442.44;5095596;28;20037;-80
2022/04/08 02:40:13;;;;;;;3.67;1.70;;;;;;;4.50;90.27;98448.19;5096695;28;20266;-80
2022/04/08 02:42:39;;;;;;;3.93;1.60;;;;;;;4.50;90.73;98445.53;5095408;28;20036;-81
2022/04/08 02:45:04;;;;;;;7.28;1.45;;;;;;;4.56;90.40;98442.00;5096170;28;20024;-80
2022/04/08 02:47:30;;;;;;;14.35;1.92;;;;;;;4.56;90.38;98441.19;5096991;28;20048;-80
2022/04/08 02:49:55;;;;;;;9.77;1.60;;;;;;;4.53;90.47;98447.75;5096224;28;20073;-80
2022/04/08 02:52:20;;;;;;;4.20;0.95;;;;;;;4.53;89.84;98447.75;5096425;28;20028;-80
2022/04/08 02:54:46;;;;;;;4.15;1.48;;;;;;;4.54;89.59;98442.22;5096597;28;20085;-80
2022/04/08 02:57:11;;;;;;;2.13;1.00;;;;;;;4.56;88.77;98449.19;5096783;28;20396;-80
2022/04/08 02:59:37;;;;;;;2.75;1.05;;;;;;;4.54;88.72;98447.56;5096853;28;20028;-80
2022/04/08 03:02:03;;;;;;;6.33;1.80;;;;;;;4.48;88.43;98453.72;5096038;28;20059;-79
2022/04/08 03:04:28;;;;;;;;;;;;;;;4.43;88.34;98445.56;5095111;28;20020;-79
2022/04/08 03:06:54;;;;;;;9.13;1.60;;;;;;;4.38;89.06;98466.72;5095650;28;20411;-79
2022/04/08 03:09:20;;;;;;;9.18;1.00;;;;;;;4.34;89.14;98459.34;5096214;28;20261;-80
2022/04/08 03:11:45;;;;;;;6.65;1.08;;;;;;;4.43;88.41;98458.91;5096158;28;20024;-79
2022/04/08 03:14:11;;;;;;;4.40;1.30;;;;;;;4.38;88.59;98461.38;5096977;28;20063;-80
2022/04/08 03:16:36;;;;;;;3.33;0.93;;;;;;;4.42;88.43;98465.28;5095895;28;20020;-79
2022/04/08 03:19:01;;;;;;;3.13;1.17;;;;;;;4.41;89.15;98466.28;5096712;28;20035;-81
2022/04/08 03:21:27;;;;;;;4.20;1.40;;;;;;;4.42;89.25;98459.94;5098638;28;20125;-80
2022/04/08 03:23:53;;;;;;;7.80;2.38;;;;;;;4.50;88.48;98464.19;5098978;28;20032;-82
2022/04/08 03:26:19;;;;;;;4.75;1.10;;;;;;;4.52;88.62;98462.13;5102682;28;20508;-80
2022/04/08 03:28:44;;;;;;;7.55;2.83;;;;;;;4.53;88.44;98458.44;5102815;28;20063;-81
2022/04/08 03:31:11;;;;;;;12.07;1.98;;;;;;;4.48;88.28;98464.41;5100643;28;20032;-80
2022/04/08 03:33:37;;;;;;;3.47;0.77;;;;;;;4.44;87.15;98460.53;5103351;28;20034;-80
2022/04/08 03:36:04;;;;;;;7.65;1.23;;;;;;;4.48;87.53;98460.91;5102109;28;20082;-80
2022/04/08 03:38:30;;;;;;;6.55;2.08;;;;;;;4.48;86.99;98463.56;5096731;28;20093;-81
2022/04/08 03:40:55;;;;;;;6.13;1.67;;;;;;;4.48;87.46;98472.41;5096094;28;20107;-82
2022/04/08 03:43:21;;;;;;;4.57;1.10;;;;;;;4.37;85.64;98474.94;5099112;28;20039;-80
2022/04/08 03:45:46;;;;;;;6.40;0.80;;;;;;;4.33;84.58;98474.53;5100262;28;20027;-80
2022/04/08 03:48:12;;;;;;;5.00;1.25;;;;;;;4.21;85.09;98481.56;5099179;28;20099;-79
2022/04/08 03:50:37;;;;;;;1.83;0.67;;;;;;;4.10;83.77;98479.56;5098530;28;20425;-80
2022/04/08 03:53:02;;;;;;;3.80;1.87;;;;;;;4.09;84.02;98494.75;5100328;28;20024;-81
2022/04/08 03:55:28;;;;;;;2.83;0.80;;;;;;;4.01;84.65;98491.47;5102417;28;20091;-80
2022/04/08 03:57:53;;;;;;;1.77;0.60;;;;;;;3.99;85.30;98504.19;5103889;28;20047;-80
2022/04/08 04:00:18;;;;;;;8.20;0.90;;;;;;;4.04;84.29;98502.53;5102757;28;20466;-82
2022/04/08 04:02:43;;;;;;;4.63;1.80;;;;;;;3.99;84.55;98513.00;5101974;28;20055;-78
2022/04/08 04:05:10;;;;;;;8.20;0.90;;;;;;;4.04;85.35;98509.72;5094243;28;20043;-78
2022/04/08 04:07:36;;;;;;;6.60;1.45;;;;;;;4.01;85.06;98518.13;5093787;28;20640;-81
2022/04/08 04:10:01;;;;;;;3.40;0.90;;;;;;;4.05;85.52;98512.19;5096062;28;20023;-79
2022/04/08 04:12:27;;;;;;;2.43;0.70;;;;;;;4.08;85.34;98514.44;5095960;28;20532;-79
2022/04/08 04:14:54;;;;;;;2.83;0.82;;;;;;;4.07;85.25;98514.63;5095957;28;20107;-80
2022/04/08 04:17:20;;;;;;;4.57;0.82;;;;;;;4.17;86.33;98515.00;5094607;28;20047;-80
2022/04/08 04:19:45;;;;;;;3.63;1.00;;;;;;;4.17;84.38;98517.66;5095845;28;20067;-81
2022/04/08 04:22:11;;;;;;;4.03;1.30;;;;;;;4.08;84.92;98514.44;5095398;28;20043;-80
2022/04/08 04:24:36;;;;;;;4.40;0.87;;;;;;;4.02;85.01;98517.91;5098441;28;20380;-79
2022/04/08 04:27:01;;;;;;;2.63;0.80;;;;;;;4.02;85.58;98525.09;5099441;28;20028;-79
2022/04/08 04:29:27;;;;;;;1.98;0.80;;;;;;;3.98;85.60;98523.88;5099635;28;20596;-79
2022/04/08 04:31:55;;;;;;;4.90;1.53;;;;;;;3.90;86.18;98522.25;5099424;28;20063;-79
2022/04/08 04:34:22;;;;;;;9.13;1.40;;;;;;;4.03;86.07;98524.06;5099993;28;20020;-82
2022/04/08 04:36:47;;;;;;;3.92;0.90;;;;;;;4.09;85.80;98525.91;5102198;28;20032;-81
2022/04/08 04:39:12;;;;;;;4.73;1.30;;;;;;;4.08;86.28;98527.75;5101136;28;20490;-80
2022/04/08 04:41:38;;;;;;;5.60;1.27;;;;;;;4.12;85.83;98530.81;5104275;28;20020;-81
2022/04/08 04:44:03;;;;;;;8.45;1.25;;;;;;;4.19;85.73;98523.59;5104302;28;20103;-81
2022/04/08 04:46:29;;;;;;;3.92;1.00;;;;;;;4.20;86.21;98525.25;5112668;28;20111;-80
2022/04/08 04:48:54;;;;;;;4.70;1.57;;;;;;;4.31;86.26;98519.25;5100659;28;20032;-81
2022/04/08 04:51:19;;;;;;;5.83;1.93;;;;;;;4.16;87.11;98511.50;5106812;28;20248;-81
2022/04/08 04:53:44;;;;;;;6.50;1.43;;;;;;;4.02;84.98;98523.25;5115790;28;20024;-81
2022/04/08 04:56:10;;;;;;;2.67;1.23;;;;;;;4.08;84.83;98518.94;5107844;28;20106;-81
2022/04/08 04:58:36;;;;;;;5.30;0.70;;;;;;;4.09;83.51;98524.06;5101949;28;20055;-80
2022/04/08 05:01:02;;;;;;;2.70;0.90;;;;;;;4.03;84.15;98530.22;5103931;28;20161;-80
2022/04/08 05:03:28;;;;;;;8.05;0.77;;;;;;;4.00;83.88;98527.97;5101993;28;20056;-79
2022/04/08 05:05:53;;;;;;;9.77;1.92;;;;;;;3.91;84.20;98533.75;5099508;28;20028;-79
2022/04/08 05:08:20;;;;;;;6.38;1.20;;;;;;;3.98;84.53;98539.84;5098199;28;20036;-78
2022/04/08 05:10:48;;;;;;;4.03;1.48;;;;;;;3.89;84.81;98541.94;5100013;28;20115;-78
2022/04/08 05:13:13;;;;;;;4.05;1.20;;;;;;;3.91;84.77;98544.41;5098110;28;20031;-79
2022/04/08 05:15:42;;;;;;;5.82;1.25;;;;;;;3.96;84.69;98547.22;5100088;28;20096;-78
2022/04/08 05:18:11;;;;;;;5.10;1.10;;;;;;;4.05;84.34;98544.16;5100274;28;20039;-79
2022/04/08 05:20:36;;;;;;;5.18;1.10;;;;;;;4.03;84.14;98548.06;5099729;28;20035;-79
2022/04/08 05:23:01;;;;;;;4.88;1.15;;;;;;;4.01;84.90;98552.75;5099343;28;20103;-79
2022/04/08 05:25:27;;;;;;;5.30;1.03;;;;;;;3.98;84.59;98551.34;5097733;28;20032;-77
2022/04/08 05:27:53;;;;;;;4.90;2.22;;;;;;;3.89;85.71;98557.09;5097416;28;20028;-78
2022/04/08 05:30:18;;;;;;;;;;;;;;;3.88;86.22;98552.81;5097574;28;20043;-77
2022/04/08 05:32:46;;;;;;;10.43;1.98;;;;;;;3.90;86.31;98558.75;5098275;28;20416;-80
2022/04/08 05:35:14;;;;;;;5.15;1.98;;;;;;;3.96;85.99;98552.56;5097874;28;20028;-79
2022/04/08 05:37:42;;;;;;;5.70;1.90;;;;;;;3.97;86.35;98552.34;5098545;28;20103;-79
2022/04/08 05:40:10;;;;;;;4.25;1.90;;;;;;;4.00;86.47;98549.28;5098215;28;20032;-79
2022/04/08 05:42:36;;;;;;;6.30;2.40;;;;;;;3.97;86.36;98546.22;5099338;28;20035;-79
2022/04/08 05:45:01;;;;;;;6.23;2.20;;;;;;;3.95;86.85;98551.75;5099549;28;20130;-79
2022/04/08 05:47:28;;;;;;;6.85;2.25;;;;;;;3.89;87.87;98557.91;5097167;28;20074;-79
2022/04/08 05:49:53;;;;;;;6.50;2.50;;;;;;;3.94;88.04;98558.09;5099599;28;20052;-79
2022/04/08 05:52:18;;;;;;;9.20;2.03;;;;;;;4.00;87.78;98559.13;5099108;28;20028;-79
2022/04/08 05:54:43;;;;;;;9.13;2.40;;;;;;;4.07;88.51;98554.59;5098180;28;20028;-80
2022/04/08 05:57:09;;;;;;;10.88;2.53;;;;;;;4.20;87.64;98559.91;5102520;28;20024;-79
2022/04/08 05:59:37;;;;;;;7.20;2.43;;;;;;;4.25;86.97;98560.09;5100244;28;20172;-79
2022/04/08 06:02:05;;;;;;;9.68;2.67;;;;;;;4.30;86.79;98551.47;5100667;28;20024;-79
2022/04/08 06:04:31;;;;;;;6.65;1.98;;;;;;;4.42;85.99;98557.78;5104803;28;20096;-80
2022/04/08 06:06:59;;;;;;;9.17;2.20;;;;;;;4.42;86.05;98547.13;5100323;28;20048;-78
2022/04/08 06:09:24;;;;;;;10.73;2.45;;;;;;;4.46;85.17;98549.16;5099061;28;20028;-79
2022/04/08 06:11:50;;;;;;;5.43;1.83;;;;;;;4.50;85.46;98539.69;5096943;28;20612;-79
2022/04/08 06:14:15;;;;;;;8.10;2.90;;;;;;;4.64;84.81;98539.63;5098917;28;20043;-79
2022/04/08 06:16:40;;;;;;;7.87;3.07;;;;;;;4.68;84.37;98538.16;5097044;28;20759;-79
2022/04/08 06:19:05;;;;;;;5.90;1.73;;;;;;;4.76;83.68;98543.25;5098137;28;20032;-78
2022/04/08 06:21:31;;;;;;;12.53;2.23;;;;;;;4.77;83.91;98537.72;5098329;28;20266;-79
2022/04/08 06:23:56;;;;;;;4.07;1.95;;;;;;;4.85;84.13;98539.31;5099465;28;20051;-78
2022/04/08 06:26:22;;;;;;;9.95;1.73;;;;;;;4.88;84.20;98536.22;5098924;28;20458;-78
2022/04/08 06:28:47;;;;;;;6.00;2.30;;;;;;;4.92;84.31;98545.44;5099431;28;20026;-79
2022/04/08 06:31:13;;;;;;;6.50;2.20;;;;;;;4.93;85.16;98540.91;5099677;28;20024;-79
2022/04/08 06:33:39;;;;;;;5.70;2.00;;;;;;;5.06;85.02;98528.28;5099804;28;20069;-80
2022/04/08 06:36:04;;;;;;;7.87;2.33;;;;;;;5.18;82.67;98537.25;5103299;28;20028;-79
2022/04/08 06:38:29;;;;;;;6.10;2.78;;;;;;;5.17;83.22;98534.81;5104236;28;20055;-80
2022/04/08 06:40:55;;;;;;;6.80;2.60;;;;;;;5.23;82.29;98531.25;5099356;28;20375;-80
2022/04/08 06:43:20;;;;;;;7.07;2.73;;;;;;;5.28;82.08;98541.28;5098729;28;20024;-77
2022/04/08 06:45:45;;;;;;;7.73;2.87;;;;;;;5.37;82.42;98530.16;5098420;28;20046;-78
2022/04/08 06:48:11;;;;;;;7.50;2.80;;;;;;;5.39;81.28;98527.22;5097901;28;20027;-78
2022/04/08 06:50:36;;;;;;;12.70;2.70;;;;;;;5.33;81.69;98531.59;5097674;28;20032;-77
2022/04/08 06:53:02;;;;;;;7.57;3.60;;;;;;;5.29;81.71;98537.59;5096981;28;20098;-78
2022/04/08 06:55:31;;;;;;;;;;;;;;;5.30;81.94;98525.88;5097198;28;20032;-78
2022/04/08 06:58:02;;;;;;;8.32;2.80;;;;;;;5.33;81.87;98530.78;5098997;28;19908;-78
2022/04/08 07:00:28;;;;;;;8.13;2.60;;;;;;;5.36;82.18;98533.03;5098074;28;20449;-78
2022/04/08 07:02:53;;;;;;;7.88;3.22;;;;;;;5.41;82.50;98535.84;5099003;28;20036;-80
2022/04/08 07:05:19;;;;;;;10.43;4.20;;;;;;;5.49;82.36;98533.72;5097824;28;20042;-80
2022/04/08 07:07:48;;;;;;;6.83;3.10;;;;;;;5.66;81.76;98527.84;5099641;28;20366;-78
2022/04/08 07:10:13;;;;;;;8.65;3.28;;;;;;;5.77;81.56;98532.44;5097667;28;20347;-78
2022/04/08 07:12:39;;;;;;;6.75;2.83;;;;;;;5.65;81.54;98527.00;5096960;28;20028;-79
2022/04/08 07:15:05;;;;;;;10.03;3.40;;;;;;;5.81;78.89;98523.78;5097584;28;20028;-79
2022/04/08 07:17:35;;;;;;;7.93;3.45;;;;;;;5.57;79.70;98525.44;5097753;28;20335;-78
2022/04/08 07:20:01;;;;;;;7.45;3.50;;;;;;;5.56;79.23;98518.44;5098733;28;20040;-78
2022/04/08 07:22:27;;;;;;;8.25;3.67;;;;;;;5.77;79.76;98521.75;5098764;28;20030;-79
2022/04/08 07:24:54;;;;;;;6.65;2.65;;;;;;;5.75;80.01;98527.31;5099023;28;20066;-79
2022/04/08 07:27:20;;;;;;;9.65;4.03;;;;;;;5.62;80.61;98530.13;5096053;28;20035;-79
2022/04/08 07:29:46;;;;;;;7.72;3.63;;;;;;;5.79;78.51;98523.19;5098127;28;20151;-79
2022/04/08 07:32:12;;;;;;;7.35;3.55;;;;;;;5.76;78.93;98522.78;5096708;28;20028;-79
2022/04/08 07:34:37;;;;;;;8.53;3.37;;;;;;;5.87;80.27;98528.25;5096428;28;20120;-79
2022/04/08 07:37:04;;;;;;;5.95;2.97;;;;;;;5.98;79.53;98524.03;5096653;28;20294;-79
2022/04/08 07:39:30;;;;;;;;;;;;;;;5.99;77.59;98530.22;5097896;28;20109;-79
2022/04/08 07:41:56;;;;;;;7.72;3.63;;;;;;;6.18;75.78;98526.50;5096363;28;20330;-79
2022/04/08 07:44:21;;;;;;;8.68;3.70;;;;;;;6.18;74.44;98531.84;5098123;28;20028;-79
2022/04/08 07:46:46;;;;;;;7.53;3.40;;;;;;;5.98;73.69;98533.94;5095666;28;20450;-79
2022/04/08 07:49:12;;;;;;;8.17;4.17;;;;;;;6.11;74.42;98534.59;5097088;28;20289;-79
2022/04/08 07:51:37;;;;;;;9.10;5.03;;;;;;;6.17;74.06;98523.03;5097005;28;20088;-79
2022/04/08 07:54:02;;;;;;;9.23;4.40;;;;;;;6.24;73.59;98526.44;5096846;28;20035;-79
2022/04/08 07:56:28;;;;;;;7.55;3.33;;;;;;;6.36;72.39;98528.38;5096440;28;20066;-79
2022/04/08 07:58:53;;;;;;;7.97;3.38;;;;;;;6.35;70.13;98519.53;5097652;28;20462;-79
2022/04/08 08:01:19;;;;;;;5.68;2.83;;;;;;;6.22;70.71;98517.84;5097462;28;20050;-79
2022/04/08 08:03:46;;;;;;;6.27;3.03;;;;;;;6.36;68.82;98521.16;5096205;28;20032;-79
2022/04/08 08:06:11;;;;;;;5.20;2.58;;;;;;;6.49;71.16;98520.16;5095950;28;20031;-79
2022/04/08 08:08:37;;;;;;;6.63;3.00;;;;;;;6.62;68.17;98520.03;5098007;28;20020;-79
2022/04/08 08:11:11;;;;;;;7.38;3.15;;;;;;;6.61;68.08;98521.88;5096717;28;20084;-79
2022/04/08 08:13:37;;;;;;;6.45;2.83;;;;;;;6.72;68.75;98519.47;5097441;28;20063;-79
2022/04/08 08:16:02;;;;;;;7.75;3.53;;;;;;;6.90;68.34;98509.53;5096528;28;20466;-78
2022/04/08 08:18:28;;;;;;;7.95;3.75;;;;;;;6.75;69.29;98516.34;5096959;28;20057;-79
2022/04/08 08:20:54;;;;;;;6.78;2.88;;;;;;;6.76;67.25;98516.13;5096601;28;20020;-79
2022/04/08 08:23:20;;;;;;;6.82;3.05;;;;;;;6.70;69.29;98513.53;5097348;28;20036;-79
2022/04/08 08:25:45;;;;;;;6.63;3.20;;;;;;;6.79;68.96;98513.00;5096631;28;20047;-79
2022/04/08 08:28:11;;;;;;;4.75;2.50;;;;;;;6.67;70.44;98509.44;5097048;28;20031;-79
2022/04/08 08:30:38;;;;;;;5.97;2.53;;;;;;;6.70;70.14;98508.19;5096455;28;20093;-79
2022/04/08 08:33:05;;;;;;;6.43;2.70;;;;;;;6.59;70.70;98509.78;5096825;28;20367;-79
2022/04/08 08:35:32;;;;;;;8.30;3.08;;;;;;;6.59;70.23;98505.22;5096991;28;20054;-79
2022/04/08 08:37:58;;;;;;;8.48;3.85;;;;;;;6.70;68.66;98508.19;5098265;28;20028;-79
2022/04/08 08:40:23;;;;;;;7.25;2.83;;;;;;;6.72;67.62;98506.91;5096575;28;20061;-79
2022/04/08 08:42:49;;;;;;;7.07;3.38;;;;;;;6.76;66.72;98502.75;5096354;28;20127;-78
2022/04/08 08:45:15;;;;;;;5.72;3.08;;;;;;;6.74;67.32;98506.69;5078517;28;20032;-78
2022/04/08 08:47:46;;;;;;;7.95;2.90;;;;;;;6.62;68.63;98506.66;5097118;28;20048;-78
2022/04/08 08:50:11;;;;;;;5.63;2.30;;;;;;;6.78;66.70;98507.88;5096243;28;20070;-79
2022/04/08 08:52:37;;;;;;;7.95;2.53;;;;;;;6.73;67.21;98513.91;5096606;28;20071;-79
2022/04/08 08:55:04;;;;;;;4.70;2.38;;;;;;;6.61;68.95;98503.16;5095752;28;20036;-79
2022/04/08 08:57:30;;;;;;;5.35;2.50;;;;;;;6.71;68.98;98497.25;5096286;28;20028;-79
2022/04/08 09:00:13;;;;;;;13.13;2.90;;;;;;;6.75;68.43;98500.28;5096214;28;20031;-79
2022/04/08 09:02:40;;;;;;;5.65;2.67;;;;;;;6.73;68.53;98497.03;5096400;28;20069;-79
2022/04/08 09:05:11;;;;;;;5.97;2.65;;;;;;;6.76;68.07;98493.91;5096268;28;20028;-78
2022/04/08 09:07:37;;;;;;;5.70;2.65;;;;;;;6.69;67.36;98487.81;5095565;28;20415;-79
2022/04/08 09:10:03;;;;;;;6.55;2.67;;;;;;;6.77;66.35;98484.81;5096511;28;20021;-79
2022/04/08 09:12:28;;;;;;;6.18;1.98;;;;;;;6.78;64.99;98481.09;5099937;28;20036;-79
2022/04/08 09:14:58;;;;;;;3.90;1.90;;;;;;;6.92;64.17;98478.00;5099538;28;20348;-78
2022/04/08 09:17:26;;;;;;;10.10;2.20;;;;;;;6.77;64.78;98469.59;5098820;28;20474;-79
2022/04/08 09:19:57;;;;;;;5.13;2.08;;;;;;;6.83;63.55;98462.47;5099400;28;20112;-79
2022/04/08 09:22:28;;;;;;;6.35;2.08;;;;;;;6.85;65.08;98452.38;5098885;28;20104;-78
2022/04/08 09:24:54;;;;;;;5.85;1.92;;;;;;;6.90;65.10;98441.78;5098820;28;20043;-78
2022/04/08 09:27:21;;;;;;;4.55;1.80;;;;;;;6.92;65.89;98435.16;5098126;28;20032;-78
2022/04/08 09:29:46;;;;;;;7.75;2.28;;;;;;;6.93;66.14;98438.66;5098975;28;20040;-78
2022/04/08 09:32:13;;;;;;;4.93;1.67;;;;;;;6.97;65.51;98429.94;5099219;28;20115;-79
2022/04/08 09:34:41;;;;;;;4.30;1.85;;;;;;;7.11;64.62;98427.03;5100439;28;20401;-79
2022/04/08 09:37:11;;;;;;;11.40;2.97;;;;;;;6.99;64.20;98421.66;5100048;28;20432;-79
2022/04/08 09:39:55;;;;;;;5.30;1.73;;;;;;;6.90;65.35;98417.69;5104685;28;20090;-78
2022/04/08 09:42:22;;;;;;;6.65;2.15;;;;;;;6.96;63.54;98417.59;5109460;28;20036;-78
2022/04/08 09:44:47;;;;;;;5.03;1.95;;;;;;;7.02;63.45;98409.66;5115012;28;20039;-78
2022/04/08 09:47:13;;;;;;;4.95;1.77;;;;;;;6.91;64.20;98405.94;5100373;28;20024;-78
2022/04/08 09:49:38;;;;;;;8.02;2.13;;;;;;;7.03;63.36;98405.94;5099615;28;20055;-78
2022/04/08 09:52:05;;;;;;;4.57;1.70;;;;;;;7.12;62.69;98401.91;5098777;28;20063;-78
2022/04/08 09:54:33;;;;;;;3.55;1.50;;;;;;;7.13;62.57;98406.22;5098677;28;20273;-78
2022/04/08 09:57:02;;;;;;;5.15;1.65;;;;;;;6.86;62.66;98411.16;5097330;28;20048;-78
2022/04/08 09:59:34;;;;;;;5.45;1.30;;;;;;;7.02;62.14;98405.13;5098920;28;20467;-78
2022/04/08 10:01:59;;;;;;;3.03;1.25;;;;;;;6.67;62.59;98394.38;5098208;28;20139;-78
2022/04/08 10:04:26;;;;;;;5.00;1.70;;;;;;;6.88;62.98;98399.19;5096862;28;20127;-77
2022/04/08 10:06:51;;;;;;;4.32;1.73;;;;;;;6.94;63.23;98389.44;5096479;28;20162;-78
2022/04/08 10:09:19;;;;;;;5.00;1.43;;;;;;;6.96;61.84;98390.81;5097850;28;20466;-78
2022/04/08 10:11:58;;;;;;;3.80;1.80;;;;;;;7.01;62.39;98383.94;5096847;28;20285;-78
2022/04/08 10:14:42;;;;;;;3.50;1.67;;;;;;;7.11;61.72;98385.00;5098547;28;20032;-78
2022/04/08 10:17:08;;;;;;;3.90;1.60;;;;;;;7.27;60.04;98386.19;5099780;28;20035;-79
2022/04/08 10:19:33;;;;;;;2.67;0.90;;;;;;;7.31;59.87;98395.38;5097892;28;20034;-78
2022/04/08 10:22:00;;;;;;;3.42;1.60;;;;;;;7.28;59.55;98396.66;5096219;28;20039;-77
2022/04/08 10:24:30;;;;;;;3.28;1.38;;;;;;;7.20;59.12;98402.34;5097864;28;20032;-78
2022/04/08 10:27:09;;;;;;;6.85;1.55;;;;;;;7.14;59.30;98403.31;5097529;28;20039;-77
2022/04/08 10:29:37;;;;;;;6.68;1.30;;;;;;;7.17;59.06;98396.63;5097216;28;20039;-77
2022/04/08 10:32:14;;;;;;;3.10;1.15;;;;;;;7.10;59.08;98404.00;5097430;28;20791;-78
2022/04/08 10:34:39;;;;;;;5.45;1.70;;;;;;;7.18;59.08;98395.59;5097404;28;20478;-78
2022/04/08 10:37:33;;;;;;;4.70;1.90;;;;;;;7.10;60.16;98402.13;5096922;28;20043;-78
2022/04/08 10:40:04;;;;;;;4.55;1.35;;;;;;;7.24;58.31;98403.53;5074789;28;20035;-78
2022/04/08 10:42:33;;;;;;;2.50;1.05;;;;;;;7.23;57.66;98407.25;5096739;28;20080;-78
2022/04/08 10:44:58;;;;;;;2.85;1.00;;;;;;;7.09;57.08;98394.31;5097549;28;20028;-78
2022/04/08 10:47:24;;;;;;;2.53;0.98;;;;;;;7.24;55.56;98398.16;5097668;28;20048;-77
2022/04/08 10:50:04;;;;;;;5.75;0.90;;;;;;;7.17;56.38;98394.78;5097537;28;20060;-78
2022/04/08 10:52:38;;;;;;;3.47;0.80;;;;;;;7.12;56.27;98394.69;5097945;28;20035;-77
2022/04/08 10:55:09;;;;;;;2.75;0.90;;;;;;;7.33;53.56;98390.63;5095800;28;20123;-78
2022/04/08 10:57:38;;;;;;;2.15;0.80;;;;;;;7.17;52.60;98383.25;5095899;28;20024;-77
2022/04/08 11:00:06;;;;;;;2.17;0.80;;;;;;;7.30;52.97;98375.81;5096726;28;20024;-78
2022/04/08 11:02:39;;;;;;;2.70;1.00;;;;;;;7.40;53.08;98377.06;5095833;28;20036;-78
2022/04/08 11:05:06;;;;;;;3.15;1.20;;;;;;;7.36;53.58;98371.38;5094846;28;20103;-77
2022/04/08 11:07:32;;;;;;;4.10;1.10;;;;;;;7.30;54.82;98378.50;5094458;28;20031;-77
2022/04/08 11:09:58;;;;;;;3.00;1.30;;;;;;;7.24;56.32;98376.75;5095254;28;20020;-77
2022/04/08 11:12:25;;;;;;;2.72;1.33;;;;;;;7.43;55.56;98377.44;5095407;28;20068;-76
2022/04/08 11:14:54;;;;;;;5.15;1.38;;;;;;;7.40;57.07;98367.19;5095143;28;20032;-76
2022/04/08 11:17:21;;;;;;;4.25;1.67;;;;;;;7.50;57.61;98363.91;5094814;28;20038;-76
2022/04/08 11:19:48;;;;;;;;;;;;;;;7.31;58.66;98355.19;5095201;28;20475;-77
2022/04/08 11:22:14;;;;;;;8.07;1.73;;;;;;;7.54;58.26;98346.28;5095512;28;19992;-77
2022/04/08 11:24:39;;;;;;;5.47;1.83;;;;;;;7.51;57.82;98342.25;5095062;28;20091;-76
2022/04/08 11:27:05;;;;;;;5.20;1.60;;;;;;;7.43;57.30;98336.44;5095038;28;20028;-76
2022/04/08 11:29:30;;;;;;;3.40;1.58;;;;;;;7.51;57.42;98341.44;5094309;28;20048;-76
2022/04/08 11:32:10;;;;;;;3.67;1.60;;;;;;;7.49;57.08;98333.63;5094912;28;20036;-78
2022/04/08 11:34:36;;;;;;;3.72;1.50;;;;;;;7.52;58.07;98333.16;5093691;28;20356;-77
2022/04/08 11:37:02;;;;;;;3.63;1.65;;;;;;;7.47;56.97;98334.91;5095487;28;20347;-79
2022/04/08 11:39:30;;;;;;;2.55;1.10;;;;;;;7.48;55.22;98325.81;5094341;28;20035;-79
2022/04/08 11:41:57;;;;;;;3.55;1.15;;;;;;;7.52;55.38;98322.44;5095538;28;20463;-79